| time (UTC) | temp C | wind direction | speed KPH | gust KPH | rain 1hr cm | rain 24hr cm | rain mn cm | humidity % | barometer mb |
| 20260506233109 | 8 | 323 | 1.6 | 11.3 | 0.00 | 0.08 | 0.00 | 86 | 1010.8 |
| 20260506231602 | 8 | 311 | 3.2 | 12.9 | 0.00 | 0.08 | 0.00 | 87 | 1010.7 |
| 20260506230058 | 8 | 321 | 3.2 | 9.7 | 0.00 | 0.08 | 0.00 | 86 | 1010.8 |
| 20260506224600 | 8 | 305 | 1.6 | 14.5 | 0.00 | 0.08 | 0.00 | 87 | 1010.7 |
| 20260506223057 | 8 | 251 | 3.2 | 11.3 | 0.00 | 0.08 | 0.00 | 86 | 1010.6 |
| 20260506221611 | 8 | 0 | 1.6 | 6.4 | 0.00 | 0.08 | 0.00 | 85 | 1010.6 |
| 20260506220056 | 8 | 282 | 0.0 | 6.4 | 0.00 | 0.08 | 0.00 | 86 | 1010.4 |
| 20260506214558 | 8 | 243 | 3.2 | 6.4 | 0.00 | 0.08 | 0.08 | 85 | 1010.3 |
| 20260506213115 | 8 | 269 | 1.6 | 8.0 | 0.00 | 0.08 | 0.08 | 85 | 1010.0 |
| 20260506211558 | 8 | 319 | 3.2 | 8.0 | 0.00 | 0.08 | 0.08 | 85 | 1009.8 |
| 20260506210058 | 8 | 319 | 1.6 | 8.0 | 0.00 | 0.08 | 0.08 | 84 | 1009.8 |
| 20260506204556 | 8 | 302 | 3.2 | 9.7 | 0.00 | 0.56 | 0.08 | 83 | 1009.7 |
| 20260506203059 | 8 | 304 | 3.2 | 8.0 | 0.00 | 0.56 | 0.08 | 83 | 1009.7 |
| 20260506201559 | 9 | 236 | 3.2 | 9.7 | 0.00 | 0.56 | 0.08 | 83 | 1009.5 |
| 20260506200058 | 9 | 248 | 1.6 | 6.4 | 0.00 | 0.56 | 0.08 | 85 | 1009.4 |
| 20260506194602 | 9 | 244 | 3.2 | 8.0 | 0.00 | 0.71 | 0.08 | 84 | 1009.2 |
| 20260506193058 | 9 | 303 | 3.2 | 11.3 | 0.00 | 0.71 | 0.08 | 83 | 1009.0 |
| 20260506191556 | 9 | 325 | 3.2 | 9.7 | 0.00 | 0.71 | 0.08 | 83 | 1008.8 |
| 20260506190106 | 9 | 276 | 6.4 | 14.5 | 0.00 | 0.71 | 0.08 | 83 | 1008.6 |
| 20260506184604 | 10 | 319 | 3.2 | 9.7 | 0.00 | 0.79 | 0.08 | 82 | 1008.5 |
| 20260506183104 | 10 | 307 | 1.6 | 4.8 | 0.00 | 0.79 | 0.08 | 83 | 1008.4 |
| 20260506181623 | 10 | 330 | 4.8 | 14.5 | 0.00 | 0.79 | 0.08 | 81 | 1008.2 |
| 20260506180101 | 10 | 233 | 4.8 | 16.1 | 0.00 | 0.79 | 0.08 | 82 | 1007.9 |
| 20260506174559 | 10 | 225 | 3.2 | 11.3 | 0.00 | 0.79 | 0.08 | 82 | 1007.9 |
| 20260506173113 | 10 | 325 | 4.8 | 17.7 | 0.00 | 0.79 | 0.08 | 82 | 1007.8 |
| 20260506171606 | 10 | 309 | 4.8 | 17.7 | 0.00 | 0.79 | 0.08 | 84 | 1007.7 |
| 20260506170105 | 10 | 221 | 3.2 | 14.5 | 0.00 | 0.79 | 0.08 | 84 | 1007.6 |
| 20260506164614 | 11 | 323 | 4.8 | 12.9 | 0.00 | 0.84 | 0.08 | 83 | 1007.7 |
| 20260506163105 | 11 | 252 | 3.2 | 16.1 | 0.00 | 0.84 | 0.08 | 83 | 1007.6 |
| 20260506161557 | 11 | 251 | 4.8 | 12.9 | 0.00 | 0.84 | 0.08 | 81 | 1007.5 |
| 20260506160105 | 11 | 275 | 4.8 | 12.9 | 0.00 | 0.84 | 0.08 | 81 | 1007.6 |
| 20260506154602 | 11 | 319 | 1.6 | 9.7 | 0.00 | 0.89 | 0.08 | 82 | 1007.5 |
| 20260506153112 | 11 | 300 | 1.6 | 11.3 | 0.00 | 0.89 | 0.08 | 82 | 1007.4 |
| 20260506151600 | 11 | 222 | 3.2 | 12.9 | 0.00 | 0.89 | 0.08 | 82 | 1007.3 |
| 20260506144559 | 11 | 323 | 3.2 | 14.5 | 0.00 | 0.94 | 0.08 | 87 | 1006.9 |
| 20260506143059 | 11 | 288 | 1.6 | 9.7 | 0.00 | 0.94 | 0.08 | 88 | 1007.0 |
| 20260506141559 | 11 | 0 | 0.0 | 14.5 | 0.00 | 0.94 | 0.08 | 91 | 1007.1 |
| 20260506134559 | 10 | 325 | 8.0 | 17.7 | 0.00 | 1.02 | 0.08 | 88 | 1007.1 |
| 20260506133056 | 11 | 279 | 3.2 | 12.9 | 0.00 | 1.02 | 0.08 | 89 | 1007.2 |
| 20260506131559 | 11 | 310 | 3.2 | 14.5 | 0.00 | 1.02 | 0.08 | 88 | 1007.0 |
| 20260506130058 | 11 | 306 | 6.4 | 16.1 | 0.00 | 1.02 | 0.08 | 87 | 1006.9 |
| 20260506124601 | 11 | 233 | 4.8 | 17.7 | 0.00 | 1.04 | 0.08 | 88 | 1006.8 |
| 20260506123057 | 11 | 344 | 3.2 | 9.7 | 0.00 | 1.04 | 0.08 | 87 | 1006.7 |
| 20260506121558 | 11 | 12 | 1.6 | 9.7 | 0.00 | 1.04 | 0.08 | 89 | 1006.5 |
| 20260506120058 | 11 | 352 | 4.8 | 11.3 | 0.00 | 1.04 | 0.08 | 87 | 1006.4 |
| 20260506114607 | 11 | 306 | 1.6 | 6.4 | 0.00 | 1.04 | 0.08 | 87 | 1006.4 |
| 20260506113058 | 11 | 343 | 1.6 | 8.0 | 0.00 | 1.04 | 0.08 | 88 | 1006.2 |
| 20260506111558 | 11 | 0 | 0.0 | 12.9 | 0.00 | 1.04 | 0.08 | 89 | 1006.2 |
| 20260506110058 | 11 | 344 | 1.6 | 11.3 | 0.00 | 1.04 | 0.08 | 90 | 1006.1 |
| 20260506104606 | 11 | 224 | 1.6 | 16.1 | 0.00 | 1.04 | 0.08 | 90 | 1006.0 |
| 20260506103059 | 11 | 0 | 0.0 | 8.0 | 0.00 | 1.04 | 0.08 | 92 | 1005.8 |
| 20260506101559 | 11 | 238 | 4.8 | 11.3 | 0.00 | 1.04 | 0.08 | 91 | 1005.7 |
| 20260506100056 | 10 | 241 | 4.8 | 12.9 | 0.00 | 1.04 | 0.08 | 92 | 1005.6 |
| 20260506094559 | 11 | 326 | 0.0 | 8.0 | 0.00 | 1.04 | 0.08 | 93 | 1005.6 |
| 20260506093057 | 10 | 0 | 3.2 | 8.0 | 0.00 | 1.04 | 0.08 | 93 | 1005.4 |
| 20260506091602 | 10 | 262 | 3.2 | 12.9 | 0.00 | 1.04 | 0.08 | 93 | 1005.4 |
| 20260506084605 | 10 | 294 | 3.2 | 11.3 | 0.00 | 1.04 | 0.08 | 93 | 1005.1 |
| 20260506083058 | 10 | 0 | 4.8 | 9.7 | 0.00 | 1.04 | 0.08 | 94 | 1005.0 |
| 20260506081559 | 11 | 0 | 0.0 | 3.2 | 0.00 | 1.04 | 0.08 | 95 | 1004.9 |
| 20260506080106 | 11 | 319 | 0.0 | 4.8 | 0.00 | 1.04 | 0.08 | 95 | 1004.9 |
| 20260506073058 | 10 | 0 | 0.0 | 1.6 | 0.03 | 1.04 | 0.08 | 95 | 1005.0 |
| 20260506071604 | 10 | 0 | 3.2 | 8.0 | 0.00 | 1.02 | 0.08 | 94 | 1004.9 |
| 20260506061556 | 10 | 323 | 1.6 | 4.8 | 0.03 | 1.02 | 0.05 | 95 | 1004.4 |
| 20260506050106 | 10 | 0 | 0.0 | 0.0 | 0.00 | 0.97 | 0.00 | 96 | 1004.0 |
| 20260506044558 | 10 | 0 | 0.0 | 0.0 | 0.00 | 0.97 | 0.00 | 96 | 1004.0 |
| 20260506043100 | 10 | 0 | 0.0 | 0.0 | 0.00 | 0.97 | 0.00 | 96 | 1004.2 |
| 20260506041602 | 10 | 0 | 0.0 | 0.0 | 0.00 | 0.97 | 0.00 | 96 | 1004.1 |
| 20260506040058 | 10 | 0 | 0.0 | 1.6 | 0.00 | 0.97 | 0.00 | 95 | 1004.3 |
| 20260506034615 | 10 | 0 | 0.0 | 0.0 | 0.00 | 0.97 | 0.00 | 95 | 1004.5 |
| 20260506033058 | 10 | 0 | 0.0 | 0.0 | 0.00 | 0.97 | 0.00 | 95 | 1004.6 |
| 20260506031607 | 10 | 0 | 0.0 | 3.2 | 0.00 | 0.97 | 0.00 | 95 | 1004.5 |
| 20260506030100 | 10 | 93 | 0.0 | 3.2 | 0.00 | 0.97 | 0.00 | 95 | 1004.6 |
| 20260506024616 | 10 | 0 | 0.0 | 3.2 | 0.00 | 0.97 | 0.00 | 95 | 1004.7 |
| 20260506023056 | 10 | 0 | 0.0 | 1.6 | 0.00 | 0.97 | 0.00 | 95 | 1004.6 |
| 20260506021559 | 11 | 0 | 0.0 | 3.2 | 0.00 | 0.97 | 0.00 | 95 | 1004.6 |
| 20260506020100 | 11 | 0 | 0.0 | 3.2 | 0.00 | 0.97 | 0.00 | 95 | 1004.6 |
| 20260506014559 | 11 | 0 | 0.0 | 3.2 | 0.00 | 0.97 | 0.00 | 95 | 1004.8 |
| 20260506013110 | 11 | 0 | 0.0 | 3.2 | 0.00 | 0.97 | 0.00 | 95 | 1004.8 |
| 20260506011608 | 11 | 0 | 0.0 | 3.2 | 0.00 | 0.97 | 0.00 | 95 | 1004.9 |
| 20260506010058 | 11 | 0 | 0.0 | 4.8 | 0.00 | 0.97 | 0.00 | 95 | 1005.0 |
| 20260506004557 | 11 | 0 | 0.0 | 4.8 | 0.00 | 0.97 | 0.00 | 96 | 1005.0 |
| 20260506003058 | 11 | 17 | 0.0 | 4.8 | 0.00 | 0.97 | 0.00 | 96 | 1005.1 |
| 20260506001558 | 11 | 330 | 0.0 | 3.2 | 0.00 | 0.97 | 0.00 | 96 | 1005.2 |
| 20260505234557 | 11 | 0 | 0.0 | 3.2 | 0.00 | 0.97 | 0.00 | 96 | 1005.5 |